Terminal Aerodrome Forecast
Issued by NWS Chicago, IL

Home | Current Version | Previous Version | Graphics & Text | Print | Product List | Glossary On
Versions: 1 2 3 4 5 6 7 8 9 10 11 12 13 14 15 16 17 18 19 20 21 22 23 24 25 26
000
FTUS43 KLOT 261512 AAA
TAFRFD
TAF AMD
KRFD 261512Z 2615/2712 VRB05KT P6SM BKN100
     FM262100 11004KT P6SM SCT070 BKN090
     FM270800 11005KT 5SM -SHRA VCTS SCT030 OVC050CB=

USA.gov is the U.S. government's official web portal to all federal, state and local government web resources and services.